sensor_id;sensor_type;location;lat;lon;timestamp;pressure;altitude;pressure_sealevel;temperature;humidity
24892;BME280;12954;50.688;10.908;2023-04-06T00:00:34;95832.50;;;0.08;46.23
24892;BME280;12954;50.688;10.908;2023-04-06T00:03:03;95832.69;;;0.13;46.09
24892;BME280;12954;50.688;10.908;2023-04-06T00:05:33;95850.59;;;0.17;46.18
24892;BME280;12954;50.688;10.908;2023-04-06T00:08:01;95820.81;;;0.22;46.18
24892;BME280;12954;50.688;10.908;2023-04-06T00:10:30;95821.81;;;0.27;45.87
24892;BME280;12954;50.688;10.908;2023-04-06T00:12:59;95826.47;;;0.32;45.70
24892;BME280;12954;50.688;10.908;2023-04-06T00:15:27;95799.84;;;0.14;45.97
24892;BME280;12954;50.688;10.908;2023-04-06T00:17:56;95819.56;;;0.31;45.62
24892;BME280;12954;50.688;10.908;2023-04-06T00:20:25;95821.56;;;0.35;45.47
24892;BME280;12954;50.688;10.908;2023-04-06T00:22:55;95812.59;;;0.36;45.42
24892;BME280;12954;50.688;10.908;2023-04-06T00:25:23;95821.38;;;0.37;45.31
24892;BME280;12954;50.688;10.908;2023-04-06T00:27:51;95820.34;;;0.38;45.34
24892;BME280;12954;50.688;10.908;2023-04-06T00:30:20;95795.72;;;0.18;45.41
24892;BME280;12954;50.688;10.908;2023-04-06T00:32:49;95793.88;;;0.25;45.45
24892;BME280;12954;50.688;10.908;2023-04-06T00:35:17;95808.97;;;0.31;45.20
24892;BME280;12954;50.688;10.908;2023-04-06T00:37:46;95821.19;;;0.32;45.16
24892;BME280;12954;50.688;10.908;2023-04-06T00:40:17;95799.38;;;0.23;44.96
24892;BME280;12954;50.688;10.908;2023-04-06T00:42:46;95811.38;;;0.32;45.14
24892;BME280;12954;50.688;10.908;2023-04-06T00:45:14;95802.41;;;0.33;45.19
24892;BME280;12954;50.688;10.908;2023-04-06T00:47:43;95787.94;;;0.23;45.21
24892;BME280;12954;50.688;10.908;2023-04-06T00:50:12;95808.97;;;0.31;44.98
24892;BME280;12954;50.688;10.908;2023-04-06T00:52:41;95797.72;;;0.29;45.18
24892;BME280;12954;50.688;10.908;2023-04-06T00:55:09;95794.06;;;0.30;45.00
24892;BME280;12954;50.688;10.908;2023-04-06T00:57:40;95791.41;;;0.30;44.93
24892;BME280;12954;50.688;10.908;2023-04-06T01:00:09;95773.69;;;0.17;44.96
24892;BME280;12954;50.688;10.908;2023-04-06T01:02:38;95787.09;;;0.29;44.96
24892;BME280;12954;50.688;10.908;2023-04-06T01:05:07;95783.69;;;0.22;45.01
24892;BME280;12954;50.688;10.908;2023-04-06T01:07:35;95788.75;;;0.30;44.93
24892;BME280;12954;50.688;10.908;2023-04-06T01:10:04;95787.72;;;0.31;45.02
24892;BME280;12954;50.688;10.908;2023-04-06T01:12:33;95790.16;;;0.32;44.85
24892;BME280;12954;50.688;10.908;2023-04-06T01:15:05;95784.03;;;0.32;44.60
24892;BME280;12954;50.688;10.908;2023-04-06T01:17:34;95791.78;;;0.33;44.48
24892;BME280;12954;50.688;10.908;2023-04-06T01:20:04;95790.38;;;0.31;44.55
24892;BME280;12954;50.688;10.908;2023-04-06T01:22:34;95786.09;;;0.30;44.80
24892;BME280;12954;50.688;10.908;2023-04-06T01:25:03;95779.94;;;0.36;44.42
24892;BME280;12954;50.688;10.908;2023-04-06T01:27:32;95783.63;;;0.35;44.35
24892;BME280;12954;50.688;10.908;2023-04-06T01:30:00;95759.63;;;0.17;44.32
24892;BME280;12954;50.688;10.908;2023-04-06T01:32:29;95776.69;;;0.34;44.24
24892;BME280;12954;50.688;10.908;2023-04-06T01:34:57;95754.94;;;0.12;44.57
24892;BME280;12954;50.688;10.908;2023-04-06T01:37:26;95778.31;;;0.35;44.18
24892;BME280;12954;50.688;10.908;2023-04-06T01:39:55;95767.69;;;0.35;44.35
24892;BME280;12954;50.688;10.908;2023-04-06T01:42:24;95759.97;;;0.27;43.99
24892;BME280;12954;50.688;10.908;2023-04-06T01:44:53;95729.84;;;0.15;43.91
24892;BME280;12954;50.688;10.908;2023-04-06T01:47:21;95774.22;;;0.39;44.16
24892;BME280;12954;50.688;10.908;2023-04-06T01:49:50;95764.84;;;0.36;44.04
24892;BME280;12954;50.688;10.908;2023-04-06T01:52:18;95774.19;;;0.45;43.93
24892;BME280;12954;50.688;10.908;2023-04-06T01:54:47;95764.81;;;0.43;43.58
24892;BME280;12954;50.688;10.908;2023-04-06T01:57:17;95763.78;;;0.37;44.00
24892;BME280;12954;50.688;10.908;2023-04-06T01:59:46;95770.16;;;0.36;43.84
24892;BME280;12954;50.688;10.908;2023-04-06T02:02:15;95773.00;;;0.35;44.00
24892;BME280;12954;50.688;10.908;2023-04-06T02:04:43;95760.78;;;0.34;44.05
24892;BME280;12954;50.688;10.908;2023-04-06T02:07:12;95739.19;;;0.17;43.97
24892;BME280;12954;50.688;10.908;2023-04-06T02:09:41;95763.66;;;0.26;43.97
24892;BME280;12954;50.688;10.908;2023-04-06T02:12:09;95768.34;;;0.30;43.83
24892;BME280;12954;50.688;10.908;2023-04-06T02:14:39;95765.28;;;0.27;43.84
24892;BME280;12954;50.688;10.908;2023-04-06T02:17:08;95764.06;;;0.23;43.82
24892;BME280;12954;50.688;10.908;2023-04-06T02:19:36;95738.03;;;0.07;44.21
24892;BME280;12954;50.688;10.908;2023-04-06T02:22:05;95770.41;;;0.22;44.02
24892;BME280;12954;50.688;10.908;2023-04-06T02:24:33;95767.78;;;0.22;43.85
24892;BME280;12954;50.688;10.908;2023-04-06T02:27:02;95739.69;;;0.08;43.89
24892;BME280;12954;50.688;10.908;2023-04-06T02:29:30;95766.94;;;0.28;44.21
24892;BME280;12954;50.688;10.908;2023-04-06T02:32:01;95759.16;;;0.26;43.87
24892;BME280;12954;50.688;10.908;2023-04-06T02:34:29;95738.03;;;0.07;44.22
24892;BME280;12954;50.688;10.908;2023-04-06T02:36:58;95761.22;;;0.24;43.94
24892;BME280;12954;50.688;10.908;2023-04-06T02:39:26;95734.88;;;0.23;43.64
24892;BME280;12954;50.688;10.908;2023-04-06T02:41:55;95761.63;;;0.28;43.39
24892;BME280;12954;50.688;10.908;2023-04-06T02:44:24;95736.41;;;0.06;43.43
24892;BME280;12954;50.688;10.908;2023-04-06T02:46:52;95748.34;;;0.28;43.14
24892;BME280;12954;50.688;10.908;2023-04-06T02:49:22;95751.03;;;0.21;43.61
24892;BME280;12954;50.688;10.908;2023-04-06T02:51:50;95746.59;;;0.09;43.89
24892;BME280;12954;50.688;10.908;2023-04-06T02:54:19;95729.94;;;-0.12;43.95
24892;BME280;12954;50.688;10.908;2023-04-06T02:56:47;95761.25;;;0.11;43.78
24892;BME280;12954;50.688;10.908;2023-04-06T02:59:16;95758.41;;;0.13;43.84
24892;BME280;12954;50.688;10.908;2023-04-06T03:01:44;95757.00;;;0.10;43.75
24892;BME280;12954;50.688;10.908;2023-04-06T03:04:13;95745.41;;;0.05;43.63
24892;BME280;12954;50.688;10.908;2023-04-06T03:06:43;95754.53;;;0.15;43.95
24892;BME280;12954;50.688;10.908;2023-04-06T03:09:12;95758.19;;;0.14;43.94
24892;BME280;12954;50.688;10.908;2023-04-06T03:11:41;95757.41;;;0.14;43.87
24892;BME280;12954;50.688;10.908;2023-04-06T03:14:09;95748.63;;;0.13;43.90
24892;BME280;12954;50.688;10.908;2023-04-06T03:16:37;95761.06;;;0.13;44.00
24892;BME280;12954;50.688;10.908;2023-04-06T03:19:06;95760.47;;;0.11;43.57
24892;BME280;12954;50.688;10.908;2023-04-06T03:21:34;95743.75;;;0.10;44.09
24892;BME280;12954;50.688;10.908;2023-04-06T03:24:05;95756.38;;;0.08;44.11
24892;BME280;12954;50.688;10.908;2023-04-06T03:26:33;95746.16;;;0.12;44.16
24892;BME280;12954;50.688;10.908;2023-04-06T03:29:02;95752.53;;;0.04;44.29
24892;BME280;12954;50.688;10.908;2023-04-06T03:31:30;95761.72;;;0.02;44.40
24892;BME280;12954;50.688;10.908;2023-04-06T03:33:59;95759.25;;;0.13;44.00
24892;BME280;12954;50.688;10.908;2023-04-06T03:36:27;95752.72;;;0.03;44.28
24892;BME280;12954;50.688;10.908;2023-04-06T03:38:57;95685.63;;;-0.49;44.42
24892;BME280;12954;50.688;10.908;2023-04-06T03:41:27;95755.59;;;0.08;44.15
24892;BME280;12954;50.688;10.908;2023-04-06T03:43:55;95755.59;;;0.01;44.24
24892;BME280;12954;50.688;10.908;2023-04-06T03:46:23;95756.44;;;0.02;44.58
24892;BME280;12954;50.688;10.908;2023-04-06T03:48:52;95756.44;;;0.02;44.15
24892;BME280;12954;50.688;10.908;2023-04-06T03:51:20;95761.31;;;0.05;44.24
24892;BME280;12954;50.688;10.908;2023-04-06T03:53:49;95759.91;;;0.02;44.01
24892;BME280;12954;50.688;10.908;2023-04-06T03:56:18;95748.47;;;0.02;44.13
24892;BME280;12954;50.688;10.908;2023-04-06T03:58:48;95762.16;;;-0.01;44.42
24892;BME280;12954;50.688;10.908;2023-04-06T04:01:18;95728.78;;;-0.35;44.49
24892;BME280;12954;50.688;10.908;2023-04-06T04:03:47;95767.44;;;-0.01;44.61
24892;BME280;12954;50.688;10.908;2023-04-06T04:06:17;95762.34;;;-0.10;44.57
24892;BME280;12954;50.688;10.908;2023-04-06T04:08:46;95749.09;;;-0.10;44.38
24892;BME280;12954;50.688;10.908;2023-04-06T04:11:14;95716.38;;;-0.35;44.46
24892;BME280;12954;50.688;10.908;2023-04-06T04:13:43;95759.34;;;-0.13;44.30
24892;BME280;12954;50.688;10.908;2023-04-06T04:16:13;95778.25;;;-0.10;44.40
24892;BME280;12954;50.688;10.908;2023-04-06T04:18:42;95763.16;;;-0.09;44.29
24892;BME280;12954;50.688;10.908;2023-04-06T04:21:12;95772.34;;;-0.05;44.33
24892;BME280;12954;50.688;10.908;2023-04-06T04:23:40;95754.03;;;-0.20;44.46
24892;BME280;12954;50.688;10.908;2023-04-06T04:26:09;95777.84;;;-0.07;44.65
24892;BME280;12954;50.688;10.908;2023-04-06T04:28:37;95776.25;;;-0.08;44.49
24892;BME280;12954;50.688;10.908;2023-04-06T04:31:06;95779.09;;;-0.09;45.08
24892;BME280;12954;50.688;10.908;2023-04-06T04:33:36;95778.06;;;-0.08;44.95
24892;BME280;12954;50.688;10.908;2023-04-06T04:36:05;95726.59;;;-0.45;44.88
24892;BME280;12954;50.688;10.908;2023-04-06T04:38:34;95726.78;;;-0.40;44.89
24892;BME280;12954;50.688;10.908;2023-04-06T04:41:02;95791.53;;;-0.10;44.92
24892;BME280;12954;50.688;10.908;2023-04-06T04:43:31;95785.44;;;-0.10;45.13
24892;BME280;12954;50.688;10.908;2023-04-06T04:45:59;95779.31;;;-0.11;44.78
24892;BME280;12954;50.688;10.908;2023-04-06T04:48:28;95782.56;;;-0.09;44.80
24892;BME280;12954;50.688;10.908;2023-04-06T04:50:58;95787.03;;;-0.09;44.58
24892;BME280;12954;50.688;10.908;2023-04-06T04:53:27;95791.09;;;-0.07;44.86
24892;BME280;12954;50.688;10.908;2023-04-06T04:55:55;95787.44;;;-0.06;44.70
24892;BME280;12954;50.688;10.908;2023-04-06T04:58:23;95791.09;;;-0.07;45.07
24892;BME280;12954;50.688;10.908;2023-04-06T05:00:52;95799.88;;;-0.06;44.98
24892;BME280;12954;50.688;10.908;2023-04-06T05:03:22;95793.56;;;-0.05;44.99
24892;BME280;12954;50.688;10.908;2023-04-06T05:05:51;95786.84;;;-0.01;45.22
24892;BME280;12954;50.688;10.908;2023-04-06T05:08:21;95793.50;;;0.15;44.95
24892;BME280;12954;50.688;10.908;2023-04-06T05:10:50;95775.56;;;0.10;45.08
24892;BME280;12954;50.688;10.908;2023-04-06T05:13:18;95783.25;;;0.25;44.90
24892;BME280;12954;50.688;10.908;2023-04-06T05:15:47;95784.88;;;0.26;44.42
24892;BME280;12954;50.688;10.908;2023-04-06T05:18:15;95785.63;;;0.46;43.56
24892;BME280;12954;50.688;10.908;2023-04-06T05:20:44;95774.69;;;0.23;44.02
24892;BME280;12954;50.688;10.908;2023-04-06T05:23:13;95789.75;;;0.29;43.92
24892;BME280;12954;50.688;10.908;2023-04-06T05:25:42;95740.47;;;0.08;43.85
24892;BME280;12954;50.688;10.908;2023-04-06T05:28:11;95791.78;;;0.40;43.74
24892;BME280;12954;50.688;10.908;2023-04-06T05:30:42;95788.88;;;0.48;43.59
24892;BME280;12954;50.688;10.908;2023-04-06T05:33:11;95795.81;;;0.49;43.64
24892;BME280;12954;50.688;10.908;2023-04-06T05:35:40;95789.47;;;0.50;43.61
24892;BME280;12954;50.688;10.908;2023-04-06T05:38:09;95751.56;;;0.43;43.26
24892;BME280;12954;50.688;10.908;2023-04-06T05:40:38;95789.16;;;0.71;42.80
24892;BME280;12954;50.688;10.908;2023-04-06T05:43:09;95786.06;;;0.74;42.52
24892;BME280;12954;50.688;10.908;2023-04-06T05:45:37;95788.34;;;0.71;42.73
24892;BME280;12954;50.688;10.908;2023-04-06T05:48:06;95787.94;;;0.67;42.77
24892;BME280;12954;50.688;10.908;2023-04-06T05:50:34;95794.03;;;0.74;42.72
24892;BME280;12954;50.688;10.908;2023-04-06T05:53:03;95791.91;;;0.89;42.36
24892;BME280;12954;50.688;10.908;2023-04-06T05:55:32;95795.25;;;0.78;42.60
24892;BME280;12954;50.688;10.908;2023-04-06T05:58:00;95794.25;;;0.73;42.69
24892;BME280;12954;50.688;10.908;2023-04-06T06:00:30;95796.84;;;0.79;42.87
24892;BME280;12954;50.688;10.908;2023-04-06T06:02:59;95804.06;;;1.03;42.04
24892;BME280;12954;50.688;10.908;2023-04-06T06:05:31;95803.34;;;0.90;42.37
24892;BME280;12954;50.688;10.908;2023-04-06T06:07:59;95799.19;;;1.00;42.51
24892;BME280;12954;50.688;10.908;2023-04-06T06:10:29;95804.06;;;1.03;42.30
24892;BME280;12954;50.688;10.908;2023-04-06T06:12:57;95710.63;;;0.57;42.03
24892;BME280;12954;50.688;10.908;2023-04-06T06:15:26;95805.28;;;1.07;42.29
24892;BME280;12954;50.688;10.908;2023-04-06T06:17:56;95806.88;;;1.08;42.25
24892;BME280;12954;50.688;10.908;2023-04-06T06:20:24;95805.28;;;1.07;42.43
24892;BME280;12954;50.688;10.908;2023-04-06T06:22:53;95799.84;;;1.21;42.14
24892;BME280;12954;50.688;10.908;2023-04-06T06:25:21;95810.22;;;1.29;42.06
24892;BME280;12954;50.688;10.908;2023-04-06T06:27:50;95808.44;;;1.47;41.57
24892;BME280;12954;50.688;10.908;2023-04-06T06:30:18;95793.19;;;1.36;41.75
24892;BME280;12954;50.688;10.908;2023-04-06T06:32:49;95778.66;;;1.39;41.29
24892;BME280;12954;50.688;10.908;2023-04-06T06:35:19;95783.38;;;1.37;41.44
24892;BME280;12954;50.688;10.908;2023-04-06T06:37:48;95761.78;;;1.27;41.89
24892;BME280;12954;50.688;10.908;2023-04-06T06:40:17;95806.84;;;1.64;41.45
24892;BME280;12954;50.688;10.908;2023-04-06T06:42:47;95810.34;;;1.65;41.47
24892;BME280;12954;50.688;10.908;2023-04-06T06:45:15;95795.72;;;1.74;41.39
24892;BME280;12954;50.688;10.908;2023-04-06T06:47:44;95809.59;;;1.76;41.47
24892;BME280;12954;50.688;10.908;2023-04-06T06:50:12;95810.41;;;1.77;41.56
24892;BME280;12954;50.688;10.908;2023-04-06T06:52:42;95802.81;;;1.80;41.77
24892;BME280;12954;50.688;10.908;2023-04-06T06:55:11;95804.41;;;1.88;41.44
24892;BME280;12954;50.688;10.908;2023-04-06T06:57:39;95804.34;;;1.94;41.48
24892;BME280;12954;50.688;10.908;2023-04-06T07:00:10;95715.63;;;1.46;41.41
24892;BME280;12954;50.688;10.908;2023-04-06T07:02:40;95767.72;;;1.72;41.54
24892;BME280;12954;50.688;10.908;2023-04-06T07:05:09;95803.25;;;2.20;41.31
24892;BME280;12954;50.688;10.908;2023-04-06T07:07:54;95803.84;;;2.22;41.09
24892;BME280;12954;50.688;10.908;2023-04-06T07:10:23;95808.63;;;2.32;41.17
24892;BME280;12954;50.688;10.908;2023-04-06T07:12:52;95792.66;;;2.32;40.49
24892;BME280;12954;50.688;10.908;2023-04-06T07:15:20;95810.47;;;2.49;40.70
24892;BME280;12954;50.688;10.908;2023-04-06T07:17:49;95810.28;;;2.51;40.78
24892;BME280;12954;50.688;10.908;2023-04-06T07:20:19;95815.59;;;2.51;40.85
24892;BME280;12954;50.688;10.908;2023-04-06T07:22:47;95805.44;;;2.59;40.72
24892;BME280;12954;50.688;10.908;2023-04-06T07:25:17;95813.13;;;2.67;40.62
24892;BME280;12954;50.688;10.908;2023-04-06T07:27:47;95786.56;;;2.61;40.44
24892;BME280;12954;50.688;10.908;2023-04-06T07:30:16;95808.91;;;2.78;40.55
24892;BME280;12954;50.688;10.908;2023-04-06T07:32:45;95813.31;;;2.84;40.45
24892;BME280;12954;50.688;10.908;2023-04-06T07:35:14;95812.41;;;2.90;40.44
24892;BME280;12954;50.688;10.908;2023-04-06T07:37:43;95811.94;;;2.93;40.38
24892;BME280;12954;50.688;10.908;2023-04-06T07:40:12;95801.66;;;2.97;40.20
24892;BME280;12954;50.688;10.908;2023-04-06T07:42:42;95813.75;;;3.11;40.04
24892;BME280;12954;50.688;10.908;2023-04-06T07:45:11;95790.56;;;3.11;39.91
24892;BME280;12954;50.688;10.908;2023-04-06T07:47:39;95805.31;;;3.25;39.65
24892;BME280;12954;50.688;10.908;2023-04-06T07:50:09;95801.63;;;3.26;39.68
24892;BME280;12954;50.688;10.908;2023-04-06T07:52:38;95780.84;;;3.17;39.72
24892;BME280;12954;50.688;10.908;2023-04-06T07:55:07;95793.19;;;3.41;39.80
24892;BME280;12954;50.688;10.908;2023-04-06T07:57:36;95798.44;;;3.48;39.34
24892;BME280;12954;50.688;10.908;2023-04-06T08:00:08;95779.06;;;3.41;38.41
24892;BME280;12954;50.688;10.908;2023-04-06T08:02:37;95800.75;;;3.56;38.89
24892;BME280;12954;50.688;10.908;2023-04-06T08:05:06;95788.22;;;3.45;38.94
24892;BME280;12954;50.688;10.908;2023-04-06T08:07:35;95807.13;;;3.66;39.04
24892;BME280;12954;50.688;10.908;2023-04-06T08:10:04;95807.50;;;3.70;39.17
24892;BME280;12954;50.688;10.908;2023-04-06T08:12:33;95807.97;;;3.78;38.96
24892;BME280;12954;50.688;10.908;2023-04-06T08:15:02;95809.81;;;3.78;38.81
24892;BME280;12954;50.688;10.908;2023-04-06T08:17:33;95803.69;;;3.77;38.56
24892;BME280;12954;50.688;10.908;2023-04-06T08:20:02;95790.44;;;3.71;38.82
24892;BME280;12954;50.688;10.908;2023-04-06T08:22:31;95812.97;;;3.86;38.45
24892;BME280;12954;50.688;10.908;2023-04-06T08:24:59;95805.19;;;3.85;38.23
24892;BME280;12954;50.688;10.908;2023-04-06T08:27:28;95811.69;;;3.89;38.38
24892;BME280;12954;50.688;10.908;2023-04-06T08:29:57;95808.56;;;3.92;38.14
24892;BME280;12954;50.688;10.908;2023-04-06T08:32:25;95791.63;;;3.75;38.11
24892;BME280;12954;50.688;10.908;2023-04-06T08:34:55;95815.63;;;3.98;37.92
24892;BME280;12954;50.688;10.908;2023-04-06T08:37:24;95813.19;;;3.97;38.08
24892;BME280;12954;50.688;10.908;2023-04-06T08:39:53;95813.06;;;4.03;38.02
24892;BME280;12954;50.688;10.908;2023-04-06T08:42:25;95796.34;;;3.96;37.97
24892;BME280;12954;50.688;10.908;2023-04-06T08:44:57;95801.94;;;4.06;37.79
24892;BME280;12954;50.688;10.908;2023-04-06T08:47:26;95821.44;;;4.18;37.96
24892;BME280;12954;50.688;10.908;2023-04-06T08:49:56;95807.72;;;4.26;37.69
24892;BME280;12954;50.688;10.908;2023-04-06T08:52:25;95821.44;;;4.30;38.00
24892;BME280;12954;50.688;10.908;2023-04-06T08:54:54;95817.50;;;4.32;37.63
24892;BME280;12954;50.688;10.908;2023-04-06T08:57:23;95649.09;;;3.01;37.69
24892;BME280;12954;50.688;10.908;2023-04-06T08:59:54;95819.22;;;4.38;37.82
24892;BME280;12954;50.688;10.908;2023-04-06T09:02:23;95812.84;;;4.39;37.75
24892;BME280;12954;50.688;10.908;2023-04-06T09:04:53;95817.38;;;4.39;37.92
24892;BME280;12954;50.688;10.908;2023-04-06T09:07:23;95817.22;;;4.45;37.53
24892;BME280;12954;50.688;10.908;2023-04-06T09:09:52;95721.63;;;3.96;37.54
24892;BME280;12954;50.688;10.908;2023-04-06T09:12:25;95814.53;;;4.45;37.64
24892;BME280;12954;50.688;10.908;2023-04-06T09:14:55;95821.47;;;4.70;37.36
24892;BME280;12954;50.688;10.908;2023-04-06T09:17:25;95813.44;;;4.70;37.33
24892;BME280;12954;50.688;10.908;2023-04-06T09:19:54;95818.78;;;4.70;37.21
24892;BME280;12954;50.688;10.908;2023-04-06T09:22:24;95819.69;;;4.75;37.13
24892;BME280;12954;50.688;10.908;2023-04-06T09:24:54;95821.19;;;4.83;36.98
24892;BME280;12954;50.688;10.908;2023-04-06T09:27:30;95810.38;;;4.78;36.37
24892;BME280;12954;50.688;10.908;2023-04-06T09:30:06;95816.75;;;4.88;36.76
24892;BME280;12954;50.688;10.908;2023-04-06T09:32:47;95814.53;;;4.97;36.21
24892;BME280;12954;50.688;10.908;2023-04-06T09:35:16;95814.84;;;5.00;36.59
24892;BME280;12954;50.688;10.908;2023-04-06T09:37:50;95814.94;;;5.06;36.46
24892;BME280;12954;50.688;10.908;2023-04-06T09:40:19;95786.34;;;5.06;36.41
24892;BME280;12954;50.688;10.908;2023-04-06T09:42:50;95812.97;;;5.29;36.47
24892;BME280;12954;50.688;10.908;2023-04-06T09:45:20;95811.38;;;5.45;35.31
24892;BME280;12954;50.688;10.908;2023-04-06T09:47:49;95806.25;;;5.43;34.93
24892;BME280;12954;50.688;10.908;2023-04-06T09:50:21;95804.50;;;5.66;34.53
24892;BME280;12954;50.688;10.908;2023-04-06T09:52:54;95800.81;;;5.72;34.43
24892;BME280;12954;50.688;10.908;2023-04-06T09:55:30;95812.69;;;5.76;34.63
24892;BME280;12954;50.688;10.908;2023-04-06T09:58:04;95804.47;;;5.99;33.38
24892;BME280;12954;50.688;10.908;2023-04-06T10:00:42;95806.66;;;6.02;32.60
24892;BME280;12954;50.688;10.908;2023-04-06T10:03:21;95797.34;;;5.88;33.10
24892;BME280;12954;50.688;10.908;2023-04-06T10:05:55;95802.13;;;5.86;33.55
24892;BME280;12954;50.688;10.908;2023-04-06T10:08:28;95805.94;;;5.90;33.75
24892;BME280;12954;50.688;10.908;2023-04-06T10:10:59;95764.66;;;5.69;34.16
24892;BME280;12954;50.688;10.908;2023-04-06T10:13:28;95800.81;;;6.05;34.39
24892;BME280;12954;50.688;10.908;2023-04-06T10:15:57;95791.41;;;6.19;34.27
24892;BME280;12954;50.688;10.908;2023-04-06T10:18:28;95792.69;;;6.33;33.86
24892;BME280;12954;50.688;10.908;2023-04-06T10:21:01;95800.78;;;6.38;34.11
24892;BME280;12954;50.688;10.908;2023-04-06T10:23:32;95791.09;;;6.37;33.87
24892;BME280;12954;50.688;10.908;2023-04-06T10:26:02;95792.34;;;6.51;34.40
24892;BME280;12954;50.688;10.908;2023-04-06T10:28:32;95790.38;;;6.63;33.88
24892;BME280;12954;50.688;10.908;2023-04-06T10:31:04;95787.75;;;6.68;33.71
24892;BME280;12954;50.688;10.908;2023-04-06T10:33:33;95780.00;;;6.72;33.61
24892;BME280;12954;50.688;10.908;2023-04-06T10:36:10;95744.97;;;6.57;33.47
24892;BME280;12954;50.688;10.908;2023-04-06T10:38:40;95779.47;;;6.92;33.52
24892;BME280;12954;50.688;10.908;2023-04-06T10:43:55;95777.53;;;7.14;33.20
24892;BME280;12954;50.688;10.908;2023-04-06T10:46:25;95769.53;;;7.19;33.33
24892;BME280;12954;50.688;10.908;2023-04-06T10:48:54;95718.31;;;6.94;32.97
24892;BME280;12954;50.688;10.908;2023-04-06T10:51:25;95771.78;;;7.27;33.13
24892;BME280;12954;50.688;10.908;2023-04-06T10:53:56;95777.41;;;7.31;32.74
24892;BME280;12954;50.688;10.908;2023-04-06T10:56:26;95756.81;;;7.36;32.91
24892;BME280;12954;50.688;10.908;2023-04-06T10:58:55;95760.59;;;7.40;32.91
24892;BME280;12954;50.688;10.908;2023-04-06T11:01:24;95754.22;;;7.46;32.93
24892;BME280;12954;50.688;10.908;2023-04-06T11:03:54;95749.72;;;7.57;32.81
24892;BME280;12954;50.688;10.908;2023-04-06T11:06:26;95758.13;;;7.65;32.96
24892;BME280;12954;50.688;10.908;2023-04-06T11:08:58;95753.41;;;7.77;33.05
24892;BME280;12954;50.688;10.908;2023-04-06T11:11:26;95746.75;;;7.85;32.84
24892;BME280;12954;50.688;10.908;2023-04-06T11:13:56;95751.41;;;7.95;32.58
24892;BME280;12954;50.688;10.908;2023-04-06T11:16:27;95716.94;;;7.87;32.57
24892;BME280;12954;50.688;10.908;2023-04-06T11:18:57;95743.41;;;8.10;32.66
24892;BME280;12954;50.688;10.908;2023-04-06T11:21:34;95741.84;;;8.19;32.64
24892;BME280;12954;50.688;10.908;2023-04-06T11:24:12;95738.41;;;8.23;32.60
24892;BME280;12954;50.688;10.908;2023-04-06T11:26:42;95748.38;;;8.33;32.71
24892;BME280;12954;50.688;10.908;2023-04-06T11:29:12;95737.66;;;8.38;32.31
24892;BME280;12954;50.688;10.908;2023-04-06T11:31:44;95735.00;;;8.43;32.08
24892;BME280;12954;50.688;10.908;2023-04-06T11:34:15;95721.81;;;8.42;32.08
24892;BME280;12954;50.688;10.908;2023-04-06T11:36:45;95722.94;;;8.56;32.11
24892;BME280;12954;50.688;10.908;2023-04-06T11:39:19;95721.09;;;8.66;31.78
24892;BME280;12954;50.688;10.908;2023-04-06T11:41:48;95720.63;;;8.79;31.91
24892;BME280;12954;50.688;10.908;2023-04-06T11:44:28;95728.16;;;8.92;31.71
24892;BME280;12954;50.688;10.908;2023-04-06T11:46:57;95718.78;;;9.00;31.93
24892;BME280;12954;50.688;10.908;2023-04-06T11:49:27;95725.81;;;9.21;30.39
24892;BME280;12954;50.688;10.908;2023-04-06T11:51:57;95712.09;;;9.08;30.66
24892;BME280;12954;50.688;10.908;2023-04-06T11:54:35;95717.97;;;9.05;30.93
24892;BME280;12954;50.688;10.908;2023-04-06T11:57:04;95717.75;;;9.11;31.02
24892;BME280;12954;50.688;10.908;2023-04-06T11:59:33;95712.91;;;9.18;31.17
24892;BME280;12954;50.688;10.908;2023-04-06T12:02:03;95711.28;;;9.27;31.21
24892;BME280;12954;50.688;10.908;2023-04-06T12:04:32;95711.59;;;9.41;31.21
24892;BME280;12954;50.688;10.908;2023-04-06T12:07:02;95719.66;;;9.56;31.21
24892;BME280;12954;50.688;10.908;2023-04-06T12:09:30;95716.44;;;9.64;31.15
24892;BME280;12954;50.688;10.908;2023-04-06T12:12:00;95710.50;;;9.72;31.00
24892;BME280;12954;50.688;10.908;2023-04-06T12:14:29;95725.56;;;9.88;30.18
24892;BME280;12954;50.688;10.908;2023-04-06T12:16:58;95719.09;;;9.89;30.30
24892;BME280;12954;50.688;10.908;2023-04-06T12:19:27;95725.28;;;9.90;30.24
24892;BME280;12954;50.688;10.908;2023-04-06T12:21:58;95707.78;;;9.87;30.32
24892;BME280;12954;50.688;10.908;2023-04-06T12:24:27;95685.13;;;9.83;30.35
24892;BME280;12954;50.688;10.908;2023-04-06T12:26:55;95705.81;;;10.18;29.83
24892;BME280;12954;50.688;10.908;2023-04-06T12:29:37;95708.50;;;10.18;29.40
24892;BME280;12954;50.688;10.908;2023-04-06T12:32:05;95695.81;;;10.29;28.91
24892;BME280;12954;50.688;10.908;2023-04-06T12:34:33;95700.69;;;10.22;28.57
24892;BME280;12954;50.688;10.908;2023-04-06T12:37:02;95687.28;;;9.96;28.69
24892;BME280;12954;50.688;10.908;2023-04-06T12:39:31;95701.00;;;10.05;28.82
24892;BME280;12954;50.688;10.908;2023-04-06T12:41:59;95696.72;;;9.99;28.01
24892;BME280;12954;50.688;10.908;2023-04-06T12:44:29;95702.13;;;9.84;28.94
24892;BME280;12954;50.688;10.908;2023-04-06T12:46:59;95701.56;;;9.92;28.06
24892;BME280;12954;50.688;10.908;2023-04-06T12:49:28;95702.66;;;9.86;28.16
24892;BME280;12954;50.688;10.908;2023-04-06T12:51:57;95673.84;;;9.81;28.09
24892;BME280;12954;50.688;10.908;2023-04-06T12:54:27;95681.91;;;9.96;28.27
24892;BME280;12954;50.688;10.908;2023-04-06T12:56:55;95676.72;;;10.10;28.12
24892;BME280;12954;50.688;10.908;2023-04-06T12:59:24;95684.84;;;10.05;28.07
24892;BME280;12954;50.688;10.908;2023-04-06T13:01:53;95688.84;;;10.13;28.34
24892;BME280;12954;50.688;10.908;2023-04-06T13:04:23;95643.31;;;10.06;28.10
24892;BME280;12954;50.688;10.908;2023-04-06T13:06:51;95676.91;;;10.39;28.28
24892;BME280;12954;50.688;10.908;2023-04-06T13:09:20;95678.50;;;10.50;28.19
24892;BME280;12954;50.688;10.908;2023-04-06T13:11:49;95679.06;;;10.47;28.53
24892;BME280;12954;50.688;10.908;2023-04-06T13:14:17;95668.50;;;10.55;28.74